Latest Weather Observations for Cobar

IDN60801

Issued at 9:35 am EST Wednesday 3 September 2014 (issued every 30 minutes, with the page automatically refreshed every 10 minutes)

About weather observations | Map of weather stations | Latest weather observations for NSW | Other Formats
Station Details ID: 048027 Name: COBAR MO Lat: -31.48 Lon: 145.83 Height: 260.0 m
Data from the previous 72 hours. | See also: Recent months at Cobar
Date/Time
EST
Temp
°C
App
Temp
°C
Dew
Point
Rel
Hum
%
Delta-T
°C
Wind Press
QNH
hPa
Press
MSL
hPa
Rain
since 9 am
mm
Dir
 
Spd
km/h
Gust
km/h
Spd
kts
Gust
kts
03/09:30am 10.1 5.1 1.3 54 3.7 SSW 17 22 9 12 1022.0 - 0.0
03/09:00am 8.7 4.1 1.5 60 3.0 SSW 15 22 8 12 1021.9 1021.6 Trace
03/08:30am 7.7 3.5 1.9 67 2.4 SSW 13 19 7 10 1022.0 - 0.0
03/08:00am 6.1 2.4 2.5 78 1.5 SW 11 15 6 8 1022.0 - 0.0
03/07:30am 5.5 1.6 1.0 73 1.8 WSW 11 15 6 8 1021.5 - 0.0
03/07:00am 3.8 -0.1 1.0 82 1.1 SW 11 15 6 8 1021.2 - 0.0
03/06:30am 3.9 0.4 1.0 81 1.1 SW 9 13 5 7 1021.2 - 0.0
03/06:00am 3.9 0.0 1.4 84 1.0 SW 11 13 6 7 1020.8 - 0.0
03/05:30am 4.0 0.2 1.7 85 0.9 SW 11 15 6 8 1020.6 - 0.0
03/05:00am 4.4 0.6 1.9 84 1.0 WSW 11 13 6 7 1020.3 - 0.0
03/04:30am 5.1 1.4 2.2 81 1.2 SSW 11 13 6 7 1020.1 - 0.0
03/04:00am 5.5 1.3 1.8 77 1.5 SW 13 17 7 9 1019.9 - 0.0
03/03:30am 5.6 1.4 1.9 77 1.5 SW 13 17 7 9 1020.0 - 0.0
03/03:00am 6.0 1.8 1.6 73 1.8 WSW 13 15 7 8 1020.1 1019.8 0.0
03/02:30am 6.6 2.8 1.7 71 2.0 WSW 11 15 6 8 1020.2 - 0.0
03/02:00am 6.9 3.1 1.5 68 2.2 WSW 11 15 6 8 1020.3 - 0.0
03/01:30am 7.3 3.8 1.4 66 2.4 SW 9 13 5 7 1020.3 - 0.0
03/01:00am 7.9 3.6 1.3 63 2.7 SW 13 17 7 9 1020.3 - 0.0
03/12:30am 8.2 4.0 1.4 62 2.8 SW 13 17 7 9 1020.4 - 0.0
03/12:00am 8.6 4.3 1.1 59 3.1 SW 13 20 7 11 1020.3 1020.1 0.0
 
Date/Time
EST
Temp
°C
App
Temp
°C
Dew
Point
Rel
Hum
%
Delta-T
°C
Wind Press
QNH
hPa
Press
MSL
hPa
Rain
since 9 am
mm
Dir
 
Spd
km/h
Gust
km/h
Spd
kts
Gust
kts
02/11:30pm 8.7 4.5 1.5 60 3.0 SW 13 17 7 9 1020.4 - 0.0
02/11:00pm 9.0 4.8 1.9 61 3.0 SW 13 17 7 9 1020.6 - 0.0
02/10:30pm 9.7 5.5 1.6 57 3.4 SW 13 19 7 10 1020.9 - 0.0
02/10:00pm 10.0 5.5 2.3 59 3.3 SW 15 20 8 11 1020.7 - 0.0
02/09:30pm 10.0 6.0 3.1 62 3.0 SW 13 17 7 9 1020.7 - 0.0
02/09:00pm 10.7 6.4 3.2 60 3.3 SW 15 20 8 11 1020.6 1020.3 0.0
02/08:30pm 11.0 6.1 2.2 54 3.8 WSW 17 33 9 18 1020.6 - 0.0
02/08:00pm 11.1 6.7 0.5 48 4.4 WSW 13 20 7 11 1020.1 - 0.0
02/07:30pm 11.5 6.6 -0.2 44 4.8 WSW 15 22 8 12 1019.8 - 0.0
02/07:00pm 12.0 6.7 -0.7 41 5.2 SW 17 20 9 11 1019.4 - 0.0
02/06:30pm 12.4 7.8 -0.8 40 5.4 SW 13 24 7 13 1018.9 - 0.0
02/06:00pm 13.2 6.8 -1.9 35 6.1 SW 22 32 12 17 1018.5 1018.2 0.0
02/05:30pm 13.7 6.1 -2.2 33 6.4 SW 28 41 15 22 1018.1 - 0.0
02/05:11pm 13.9 6.4 -1.5 34 6.3 SW 28 46 15 25 1017.7 - 0.0
02/05:00pm 14.2 6.3 -1.3 34 6.4 SW 30 44 16 24 1017.6 - 0.0
02/04:38pm 14.5 6.6 -1.9 32 6.7 SW 30 48 16 26 1017.5 - 0.0
02/04:30pm 14.1 6.6 -1.5 34 6.4 SW 28 43 15 23 1017.6 - 0.0
02/04:00pm 14.8 7.7 -1.0 34 6.6 SSW 26 37 14 20 1017.5 - 0.0
02/03:30pm 13.7 6.4 0.0 39 5.8 SW 28 41 15 22 1017.4 - 0.0
02/03:00pm 14.7 7.1 0.3 37 6.2 WSW 30 41 16 22 1017.2 1016.9 0.0
02/02:30pm 14.4 7.3 1.4 41 5.7 SW 28 39 15 21 1017.4 - 0.0
02/02:00pm 14.1 7.4 1.6 42 5.5 SW 26 35 14 19 1017.4 - 0.0
02/01:30pm 14.4 7.4 1.7 42 5.6 SW 28 37 15 20 1017.2 - 0.0
02/01:19pm 14.2 7.3 2.3 44 5.3 SW 28 50 15 27 1017.2 - 0.0
02/01:00pm 14.7 8.4 3.7 47 5.1 SW 26 35 14 19 1017.2 - 0.0
02/12:30pm 14.5 8.4 2.5 44 5.4 SW 24 37 13 20 1017.4 - 0.0
02/12:00pm 14.0 8.8 3.8 50 4.7 WSW 20 30 11 16 1017.7 1017.4 0.0
02/11:30am 12.9 6.2 3.4 52 4.3 SW 28 39 15 21 1018.0 - 0.0
02/11:00am 12.8 7.0 4.3 56 3.9 SW 24 35 13 19 1018.2 - 0.0
02/10:30am 11.7 5.2 4.8 62 3.2 SW 28 37 15 20 1018.2 - 0.0
02/10:00am 11.7 5.2 4.5 61 3.3 SSW 28 46 15 25 1018.0 - 0.0
02/09:30am 11.4 5.7 6.6 72 2.3 SW 26 37 14 20 1017.7 - 0.0
02/09:00am 11.2 6.0 7.3 77 1.9 SW 24 33 13 18 1017.6 1017.3 1.2
02/08:30am 10.2 5.3 6.8 79 1.6 SW 22 32 12 17 1017.2 - 1.2
02/08:00am 10.3 5.5 7.4 82 1.4 SW 22 35 12 19 1016.8 - 1.2
02/07:30am 10.3 5.6 7.6 83 1.3 SW 22 35 12 19 1016.0 - 1.2
02/07:00am 9.9 5.8 7.8 87 1.0 WSW 19 28 10 15 1015.8 - 1.2
02/06:49am 9.8 5.7 8.0 88 0.9 WSW 19 24 10 13 1015.7 - 1.2
02/06:30am 9.9 5.6 7.8 87 1.0 WSW 20 30 11 16 1015.5 - 1.2
02/06:00am 10.0 5.7 8.0 87 1.0 WSW 20 26 11 14 1015.1 1014.8 1.2
02/05:30am 10.0 5.4 8.2 88 0.9 WSW 22 32 12 17 1014.8 - 1.2
02/05:00am 10.1 5.4 7.8 86 1.1 SW 22 28 12 15 1014.4 - 1.2
02/04:53am 10.2 5.9 7.7 84 1.2 SW 20 28 11 15 1014.3 - 1.2
02/04:42am 10.2 6.0 8.2 87 1.0 SW 20 30 11 16 1014.2 - 1.2
02/04:30am 10.2 5.2 8.0 86 1.1 SW 24 37 13 20 1014.0 - 1.2
02/04:07am 10.3 5.9 8.9 91 0.7 SW 22 30 12 16 1013.9 - 1.2
02/04:00am 10.3 6.5 8.9 91 0.7 SW 19 26 10 14 1013.8 - 1.2
02/03:52am 10.4 7.0 9.0 91 0.7 SW 17 24 9 13 1013.7 - 1.2
02/03:30am 10.4 6.6 9.2 92 0.6 SW 19 28 10 15 1013.7 - 1.2
02/03:08am 10.8 6.0 8.8 87 1.0 SW 24 37 13 20 1013.9 - 1.2
02/03:00am 10.7 7.0 9.5 92 0.6 SW 19 30 10 16 1013.9 1013.6 1.2
02/02:30am 11.0 7.1 9.4 90 0.8 SW 20 30 11 16 1014.1 - 1.2
02/02:22am 11.1 7.6 10.1 94 0.5 WSW 19 28 10 15 1014.1 - 1.2
02/02:00am 11.4 9.4 10.2 92 0.6 W 11 15 6 8 1013.7 - 1.2
02/01:30am 11.6 8.9 10.4 92 0.6 W 15 22 8 12 1014.3 - 1.0
02/01:00am 11.6 8.5 10.4 92 0.6 W 17 26 9 14 1014.6 - 1.0
02/12:52am 11.7 9.3 10.2 90 0.8 W 13 19 7 10 1014.1 - 0.8
02/12:38am 12.0 8.2 9.9 87 1.1 W 20 30 11 16 1014.9 - 0.2
02/12:30am 12.8 8.8 8.9 77 2.0 W 20 32 11 17 1015.0 - 0.0
02/12:00am 13.7 8.9 7.5 66 3.1 WSW 22 37 12 20 1015.0 1014.7 0.0
 
Date/Time
EST
Temp
°C
App
Temp
°C
Dew
Point
Rel
Hum
%
Delta-T
°C
Wind Press
QNH
hPa
Press
MSL
hPa
Rain
since 9 am
mm
Dir
 
Spd
km/h
Gust
km/h
Spd
kts
Gust
kts
01/11:30pm 14.8 10.1 5.2 52 4.6 SW 19 28 10 15 1014.6 - 0.0
01/11:00pm 14.9 10.0 5.0 51 4.7 SSW 20 32 11 17 1014.1 - 0.0
01/10:30pm 15.2 10.5 5.2 51 4.8 SW 19 26 10 14 1014.4 - 0.0
01/10:00pm 15.5 11.2 5.3 50 4.9 SSW 17 26 9 14 1013.9 - 0.0
01/09:30pm 15.9 9.9 5.1 48 5.2 SSW 26 41 14 22 1013.7 - 0.0
01/09:00pm 16.7 9.7 4.3 43 5.9 SSW 30 44 16 24 1013.8 1013.4 0.0
01/08:30pm 18.2 10.2 -2.6 24 8.7 SW 30 48 16 26 1013.2 - 0.0
01/08:29pm 18.2 10.2 -2.6 24 8.7 SW 30 48 16 26 1013.2 - 0.0
01/08:18pm 18.9 11.0 -5.1 19 9.6 SW 28 37 15 20 1012.8 - 0.0
01/08:00pm 18.9 14.2 -4.6 20 9.5 NNW 11 13 6 7 1011.8 - 0.0
01/07:30pm 19.2 14.5 -4.8 19 9.7 NNW 11 13 6 7 1011.9 - 0.0
01/07:00pm 19.7 15.2 -3.2 21 9.6 N 11 13 6 7 1011.5 - 0.0
01/06:30pm 20.8 15.6 -5.8 16 10.7 NNW 13 15 7 8 1011.5 - 0.0
01/06:00pm 22.0 16.4 -6.8 14 11.5 NNW 15 22 8 12 1011.1 1010.8 0.0
01/05:30pm 23.0 16.8 -8.5 11 12.3 NW 17 30 9 16 1011.2 - 0.0
01/05:00pm 23.3 17.2 -8.1 11 12.4 NW 17 20 9 11 1011.2 - 0.0
01/04:30pm 24.6 17.9 -8.2 11 13.1 NW 20 35 11 19 1011.2 - 0.0
01/04:00pm 24.3 17.7 -7.4 11 12.8 NW 20 30 11 16 1011.3 - 0.0
01/03:30pm 24.0 18.4 -6.5 12 12.5 WNW 15 22 8 12 1011.4 - 0.0
01/03:00pm 24.7 18.3 -6.7 12 12.9 NW 19 28 10 15 1011.9 1011.6 0.0
01/02:30pm 24.3 17.1 -5.7 13 12.5 NNW 24 30 13 16 1012.4 - 0.0
01/02:00pm 24.0 17.7 -4.4 15 12.1 NNW 20 32 11 17 1013.0 - 0.0
01/01:30pm 23.1 15.9 -5.3 14 11.8 NW 24 33 13 18 1013.5 - 0.0
01/01:00pm 23.4 15.9 -5.0 14 11.9 WNW 26 35 14 19 1013.9 - 0.0
01/12:30pm 23.4 16.3 -4.5 15 11.8 NW 24 33 13 18 1014.4 - 0.0
01/12:00pm 23.3 16.2 -4.3 15 11.7 WNW 24 30 13 16 1014.6 1014.3 0.0
01/11:30am 23.3 16.4 -2.4 18 11.3 NNW 24 37 13 20 1015.3 - 0.0
01/11:00am 22.4 16.6 0.1 22 10.2 NNW 20 30 11 16 1016.0 - 0.0
01/10:30am 20.4 14.7 -0.5 24 9.3 N 19 28 10 15 1016.3 - 0.0
01/10:00am 20.5 13.9 -0.3 25 9.3 N 24 37 13 20 1016.8 - 0.0
01/09:30am 19.1 13.7 1.0 29 8.2 N 19 30 10 16 1017.0 - 0.0
01/09:00am 16.6 11.7 1.7 36 6.7 N 17 24 9 13 1017.2 1016.9 0.0
01/08:30am 15.3 11.5 1.9 40 6.0 N 11 15 6 8 1017.2 - 0.0
01/08:00am 14.4 9.1 1.7 42 5.6 N 19 28 10 15 1017.0 - 0.0
01/07:30am 12.4 7.4 1.5 47 4.7 NNE 17 20 9 11 1016.8 - 0.0
01/07:00am 11.0 6.4 1.7 52 4.0 NNE 15 19 8 10 1016.4 - 0.0
01/06:30am 10.6 6.4 1.7 54 3.8 NNE 13 17 7 9 1016.2 - 0.0
01/06:00am 11.1 6.5 1.5 51 4.1 NNE 15 19 8 10 1016.1 1015.8 0.0
01/05:30am 10.9 6.7 1.5 52 4.0 NNE 13 19 7 10 1016.1 - 0.0
01/05:00am 10.9 6.3 1.5 52 4.0 NNE 15 17 8 9 1016.0 - 0.0
01/04:30am 11.4 6.4 1.3 50 4.3 NNE 17 20 9 11 1015.8 - 0.0
01/04:00am 11.4 7.2 1.6 51 4.2 NNE 13 19 7 10 1015.8 - 0.0
01/03:30am 11.8 7.2 1.3 48 4.5 NNE 15 19 8 10 1015.7 - 0.0
01/03:00am 12.1 7.1 1.1 47 4.7 NNE 17 19 9 10 1015.8 1015.5 0.0
01/02:30am 12.1 7.5 1.4 48 4.6 NNE 15 19 8 10 1016.0 - 0.0
01/02:00am 12.2 7.9 1.2 47 4.7 NNE 13 17 7 9 1016.2 - 0.0
01/01:30am 12.5 8.3 1.4 46 4.8 NNE 13 15 7 8 1016.4 - 0.0
01/01:00am 12.8 8.1 1.2 45 5.0 NNE 15 17 8 9 1016.2 - 0.0
01/12:30am 12.9 8.3 1.3 45 5.0 NNE 15 19 8 10 1016.4 - 0.0
01/12:00am 13.8 9.1 1.1 42 5.5 NNE 15 19 8 10 1016.7 1016.7 0.0
 
Date/Time
EST
Temp
°C
App
Temp
°C
Dew
Point
Rel
Hum
%
Delta-T
°C
Wind Press
QNH
hPa
Press
MSL
hPa
Rain
since 9 am
mm
Dir
 
Spd
km/h
Gust
km/h
Spd
kts
Gust
kts
31/11:30pm 14.4 9.4 1.1 40 5.8 NE 17 22 9 12 1017.0 - 0.0
31/11:00pm 13.9 9.2 0.6 40 5.7 NE 15 19 8 10 1017.2 - 0.0
31/10:30pm 14.2 9.8 0.1 38 6.0 ENE 13 17 7 9 1017.5 - 0.0
31/10:00pm 15.4 13.6 1.1 38 6.3 CALM 0 0 0 0 1017.6 - 0.0
31/09:30pm 16.8 14.1 0.4 33 7.2 NNW 4 6 2 3 1017.7 - 0.0
31/09:00pm 16.2 13.5 2.9 41 6.1 NNW 6 7 3 4 1017.9 1018.0 0.0
31/08:30pm 16.7 13.6 -0.1 32 7.3 NNW 6 7 3 4 1017.7 - 0.0
31/08:00pm 16.7 13.6 0.2 32 7.2 E 6 7 3 4 1017.5 - 0.0
31/07:30pm 16.9 13.8 0.2 32 7.3 NNW 6 7 3 4 1017.4 - 0.0
31/07:00pm 16.9 15.1 1.2 34 7.0 CALM 0 0 0 0 1017.4 - 0.0
31/06:30pm 18.1 16.5 2.3 34 7.3 CALM 0 0 0 0 1017.2 - 0.0
31/06:00pm 19.9 17.8 1.8 30 8.4 WSW 2 6 1 3 1016.9 1016.9 0.0
31/05:30pm 21.0 19.4 2.4 29 8.8 CALM 0 0 0 0 1016.7 - 0.0
31/05:00pm 21.8 18.8 1.1 25 9.6 SSW 6 7 3 4 1016.6 - 0.0
31/04:30pm 21.8 18.2 -2.0 20 10.4 N 7 13 4 7 1016.6 - 0.0
31/04:00pm 22.1 18.3 -0.9 21 10.3 NNW 9 13 5 7 1016.6 - 0.0
31/03:30pm 22.4 18.3 0.1 22 10.2 NNW 11 15 6 8 1016.8 - 0.0
31/03:00pm 22.5 19.5 0.7 23 10.1 SW 6 9 3 5 1017.1 1017.1 0.0
31/02:30pm 22.2 18.4 -0.7 21 10.3 N 9 17 5 9 1017.2 - 0.0
31/02:00pm 22.1 19.0 1.3 25 9.7 SE 7 11 4 6 1017.8 - 0.0
31/01:30pm 21.1 17.0 -0.3 24 9.6 SE 11 19 6 10 1018.2 - 0.0
31/01:00pm 21.1 17.2 1.2 26 9.2 W 11 20 6 11 1018.8 - 0.0
31/12:30pm 20.6 17.6 2.0 29 8.7 SSW 7 19 4 10 1019.4 - 0.0
31/12:00pm 20.9 17.5 1.8 28 8.9 N 9 17 5 9 1019.9 1020.0 0.0
31/11:30am 20.4 17.2 2.9 31 8.3 N 9 17 5 9 1020.3 - 0.0
31/11:00am 19.5 16.8 3.9 35 7.5 N 7 17 4 9 1020.9 - 0.0
31/10:30am 18.7 15.7 4.1 38 7.0 N 9 19 5 10 1021.2 - 0.0
31/10:00am 17.7 14.2 3.7 39 6.6 N 11 17 6 9 1021.5 - 0.0

Other Formats:

Comma delimited format used in spreadsheet applications
http://www.bom.gov.au/fwo/IDN60801/IDN60801.94711.axf

JavaScript Object Notation format (JSON) in row-major order
http://www.bom.gov.au/fwo/IDN60801/IDN60801.94711.json